Time;durP1;ratioP1;P1;durP2;ratioP2;P2;SDS_P1;SDS_P2;PMS_P1;PMS_P2;Temp;Humidity;BMP_temperature;BMP_pressure;BME280_temperature;BME280_humidity;BME280_pressure;Samples;Min_cycle;Max_cycle;Signal;HPM_P1;HPM_P2
2024/02/13 00:02:15;;;;;;;1.10;1.00;;;5.60;99.90;;;;;;4409667;32;20176;-57
2024/02/13 00:04:41;;;;;;;0.88;0.80;;;5.60;99.90;;;;;;4412209;32;20085;-56
2024/02/13 00:07:06;;;;;;;14.27;1.48;;;5.60;99.90;;;;;;4412566;32;20549;-57
2024/02/13 00:09:32;;;;;;;0.62;0.62;;;5.60;99.90;;;;;;4411656;32;20089;-56
2024/02/13 00:11:57;;;;;;;2.58;1.00;;;5.60;99.90;;;;;;4413062;32;20431;-55
2024/02/13 00:14:23;;;;;;;1.35;1.25;;;5.60;99.90;;;;;;4412126;32;20084;-57
2024/02/13 00:16:48;;;;;;;1.30;0.80;;;5.60;99.90;;;;;;4413769;32;20512;-57
2024/02/13 00:19:14;;;;;;;2.65;1.20;;;5.60;99.90;;;;;;4413561;32;20446;-57
2024/02/13 00:21:39;;;;;;;4.37;2.37;;;5.50;99.90;;;;;;4415977;32;20128;-58
2024/02/13 00:24:05;;;;;;;3.00;1.30;;;5.60;99.90;;;;;;4413982;32;20136;-57
2024/02/13 00:26:31;;;;;;;0.70;0.70;;;5.50;99.90;;;;;;4414597;32;20546;-56
2024/02/13 00:28:56;;;;;;;3.85;1.05;;;5.50;99.90;;;;;;4412817;32;20226;-57
2024/02/13 00:31:22;;;;;;;0.70;0.70;;;5.50;99.90;;;;;;4411917;32;20110;-57
2024/02/13 00:33:48;;;;;;;2.10;0.98;;;5.50;99.90;;;;;;4411265;32;20081;-58
2024/02/13 00:36:15;;;;;;;0.62;0.62;;;5.50;99.90;;;;;;4415941;32;20505;-58
2024/02/13 00:38:43;;;;;;;0.32;0.32;;;5.50;99.90;;;;;;4401074;32;20082;-57
2024/02/13 00:41:09;;;;;;;0.62;0.60;;;5.50;99.90;;;;;;4413307;32;20109;-57
2024/02/13 00:43:35;;;;;;;0.57;0.57;;;5.40;99.90;;;;;;4414410;32;20142;-57
2024/02/13 00:46:01;;;;;;;0.52;0.52;;;5.40;99.90;;;;;;4412605;32;20065;-58
2024/02/13 00:48:27;;;;;;;0.40;0.40;;;5.40;99.90;;;;;;4410046;32;20478;-57
2024/02/13 00:50:52;;;;;;;0.65;0.65;;;5.40;99.90;;;;;;4415317;32;20084;-56
2024/02/13 00:53:18;;;;;;;4.95;1.55;;;5.50;99.90;;;;;;4419620;32;20548;-57
2024/02/13 00:55:44;;;;;;;0.62;0.62;;;5.40;99.90;;;;;;4413038;32;20537;-55
2024/02/13 00:58:10;;;;;;;2.85;1.20;;;5.40;99.90;;;;;;4410839;32;20134;-57
2024/02/13 01:00:36;;;;;;;0.65;0.65;;;5.40;99.90;;;;;;4400128;32;20070;-57
2024/02/13 01:03:01;;;;;;;0.70;0.70;;;5.40;99.90;;;;;;4410926;32;20084;-57
2024/02/13 01:05:30;;;;;;;1.98;0.88;;;5.40;99.90;;;;;;4415333;32;20117;-57
2024/02/13 01:07:56;;;;;;;0.90;0.90;;;5.40;99.90;;;;;;4412393;32;20066;-57
2024/02/13 01:10:22;;;;;;;0.90;0.90;;;5.40;99.90;;;;;;4411594;32;20746;-57
2024/02/13 01:12:47;;;;;;;0.80;0.80;;;5.40;99.90;;;;;;4409785;32;20069;-57
2024/02/13 01:15:14;;;;;;;1.30;0.75;;;5.40;99.90;;;;;;4411889;32;20086;-57
2024/02/13 01:17:40;;;;;;;0.57;0.57;;;5.40;99.90;;;;;;4415206;32;20089;-57
2024/02/13 01:20:09;;;;;;;2.42;1.45;;;5.40;99.90;;;;;;4414233;32;20169;-58
2024/02/13 01:22:35;;;;;;;0.68;0.68;;;5.40;99.90;;;;;;4415821;32;20109;-58
2024/02/13 01:25:01;;;;;;;1.80;1.05;;;5.40;99.90;;;;;;4416424;32;20095;-57
2024/02/13 01:27:26;;;;;;;1.48;0.80;;;5.50;99.90;;;;;;4414563;32;20076;-57
2024/02/13 01:29:52;;;;;;;1.35;1.05;;;5.50;99.90;;;;;;4414827;32;20529;-56
2024/02/13 01:32:18;;;;;;;0.55;0.55;;;5.50;99.90;;;;;;4412709;32;20081;-57
2024/02/13 01:34:43;;;;;;;1.58;1.00;;;5.50;99.90;;;;;;4412487;32;20082;-55
2024/02/13 01:37:09;;;;;;;0.60;0.60;;;5.50;99.90;;;;;;4415162;32;20526;-55
2024/02/13 01:39:34;;;;;;;0.45;0.45;;;5.50;99.90;;;;;;4412031;32;20439;-57
2024/02/13 01:42:01;;;;;;;1.40;1.30;;;5.60;99.90;;;;;;4415736;32;20069;-58
2024/02/13 01:44:28;;;;;;;3.40;1.60;;;5.60;99.90;;;;;;4413063;32;20154;-57
2024/02/13 01:46:54;;;;;;;1.77;1.27;;;5.70;99.90;;;;;;4417760;32;20065;-56
2024/02/13 01:49:20;;;;;;;1.45;1.17;;;5.60;99.90;;;;;;4415241;32;20073;-57
2024/02/13 01:51:48;;;;;;;2.22;0.75;;;5.70;99.90;;;;;;4415138;32;20084;-56
2024/02/13 01:54:14;;;;;;;0.70;0.70;;;5.60;99.90;;;;;;4413733;32;20093;-56
2024/02/13 01:56:41;;;;;;;0.68;0.68;;;5.60;99.90;;;;;;4414532;32;20089;-57
2024/02/13 01:59:08;;;;;;;1.08;1.08;;;5.70;99.90;;;;;;4412672;32;20123;-56
2024/02/13 02:01:35;;;;;;;3.95;1.73;;;5.80;99.90;;;;;;4413698;32;20073;-57
2024/02/13 02:04:05;;;;;;;0.55;0.55;;;5.80;99.90;;;;;;4415419;32;20085;-56
2024/02/13 02:06:31;;;;;;;0.53;0.53;;;5.80;99.90;;;;;;4416660;32;20529;-57
2024/02/13 02:08:57;;;;;;;0.65;0.62;;;5.80;99.90;;;;;;4414911;32;20097;-57
2024/02/13 02:11:23;;;;;;;0.55;0.52;;;5.80;99.90;;;;;;4408674;32;20085;-58
2024/02/13 02:13:49;;;;;;;1.58;1.25;;;5.80;99.90;;;;;;4410463;32;20065;-56
2024/02/13 02:16:15;;;;;;;1.80;1.12;;;5.80;99.90;;;;;;4412192;32;20090;-56
2024/02/13 02:18:40;;;;;;;0.80;0.80;;;5.80;99.90;;;;;;4414093;32;20077;-57
2024/02/13 02:21:07;;;;;;;0.75;0.75;;;5.80;99.90;;;;;;4416978;32;20552;-57
2024/02/13 02:23:34;;;;;;;2.85;1.45;;;5.80;99.90;;;;;;4414201;32;20537;-57
2024/02/13 02:26:01;;;;;;;3.15;2.35;;;5.80;99.90;;;;;;4413115;32;20081;-57
2024/02/13 02:28:27;;;;;;;0.47;0.47;;;5.80;99.90;;;;;;4411687;32;20162;-57
2024/02/13 02:30:52;;;;;;;0.60;0.60;;;5.80;99.90;;;;;;4416836;32;20089;-57
2024/02/13 02:33:17;;;;;;;0.60;0.60;;;5.80;99.90;;;;;;4409402;32;20125;-54
2024/02/13 02:35:43;;;;;;;0.88;0.88;;;5.80;99.90;;;;;;4413221;32;20085;-57
2024/02/13 02:38:10;;;;;;;0.35;0.35;;;5.80;99.90;;;;;;4417305;32;20139;-56
2024/02/13 02:40:36;;;;;;;0.52;0.52;;;5.80;99.90;;;;;;4407625;32;20098;-57
2024/02/13 02:43:02;;;;;;;0.45;0.45;;;5.80;99.90;;;;;;4409405;32;20132;-58
2024/02/13 02:45:28;;;;;;;3.47;1.23;;;5.80;99.90;;;;;;4412172;32;20493;-57
2024/02/13 02:47:54;;;;;;;0.50;0.50;;;5.80;99.90;;;;;;4398576;32;20093;-58
2024/02/13 02:50:19;;;;;;;4.68;0.85;;;5.80;99.90;;;;;;4415037;32;20114;-57
2024/02/13 02:52:45;;;;;;;0.43;0.43;;;5.80;99.90;;;;;;4411967;32;20143;-58
2024/02/13 02:55:10;;;;;;;2.42;1.87;;;5.80;99.90;;;;;;4415631;32;20689;-58
2024/02/13 02:57:37;;;;;;;0.37;0.37;;;5.80;99.90;;;;;;4413014;32;20082;-56
2024/02/13 03:02:35;;;;;;;0.62;0.62;;;5.80;99.90;;;;;;4410160;32;20093;-57
2024/02/13 03:05:03;;;;;;;0.60;0.60;;;5.80;99.90;;;;;;4411636;32;20077;-57
2024/02/13 03:07:29;;;;;;;0.60;0.60;;;5.80;99.90;;;;;;4410932;32;20471;-58
2024/02/13 03:09:55;;;;;;;0.60;0.60;;;5.80;99.90;;;;;;4413950;32;20093;-58
2024/02/13 03:12:21;;;;;;;0.60;0.60;;;5.80;99.90;;;;;;4412703;32;21098;-58
2024/02/13 03:14:50;;;;;;;0.73;0.73;;;5.80;99.90;;;;;;4413308;32;20823;-57
2024/02/13 03:17:17;;;;;;;0.30;0.30;;;5.80;99.90;;;;;;4413325;32;20074;-57
2024/02/13 03:19:42;;;;;;;0.50;0.50;;;5.80;99.90;;;;;;4414042;32;20261;-58
2024/02/13 03:22:08;;;;;;;0.57;0.57;;;5.70;99.90;;;;;;4414071;32;20508;-56
2024/02/13 03:24:33;;;;;;;0.40;0.40;;;5.70;99.90;;;;;;4414002;32;20080;-58
2024/02/13 03:27:00;;;;;;;0.50;0.50;;;5.70;99.90;;;;;;4415893;32;20127;-58
2024/02/13 03:29:25;;;;;;;0.75;0.75;;;5.70;99.90;;;;;;4410741;32;20195;-58
2024/02/13 03:31:51;;;;;;;1.05;1.00;;;5.60;99.90;;;;;;4411511;32;20073;-58
2024/02/13 03:34:16;;;;;;;3.22;1.45;;;5.60;99.90;;;;;;4413665;32;20501;-58
2024/02/13 03:36:42;;;;;;;0.30;0.30;;;5.60;99.90;;;;;;4415679;32;20192;-58
2024/02/13 03:39:08;;;;;;;0.68;0.68;;;5.60;99.90;;;;;;4413034;32;20090;-56
2024/02/13 03:41:40;;;;;;;0.45;0.45;;;5.60;99.90;;;;;;4416483;32;20061;-58
2024/02/13 03:44:10;;;;;;;2.00;1.75;;;5.60;99.90;;;;;;4411288;32;20120;-58
2024/02/13 03:46:35;;;;;;;0.50;0.50;;;5.60;99.90;;;;;;4412873;32;20541;-58
2024/02/13 03:49:01;;;;;;;0.40;0.40;;;5.50;99.90;;;;;;4412953;32;20073;-55
2024/02/13 03:51:26;;;;;;;0.40;0.40;;;5.60;99.90;;;;;;4417439;32;20419;-58
2024/02/13 03:53:52;;;;;;;3.67;1.00;;;5.50;99.90;;;;;;4415057;32;20073;-57
2024/02/13 03:56:17;;;;;;;0.40;0.40;;;5.50;99.90;;;;;;4412059;32;20096;-59
2024/02/13 03:58:43;;;;;;;0.40;0.40;;;5.50;99.90;;;;;;4411097;32;20098;-58
2024/02/13 04:01:09;;;;;;;0.45;0.45;;;5.50;99.90;;;;;;4408403;32;20080;-58
2024/02/13 04:03:36;;;;;;;1.17;1.15;;;5.50;99.90;;;;;;4407107;32;20069;-58
2024/02/13 04:06:05;;;;;;;0.35;0.35;;;5.50;99.90;;;;;;4410204;32;20090;-57
2024/02/13 04:08:30;;;;;;;0.32;0.32;;;5.40;99.90;;;;;;4409655;32;21339;-58
2024/02/13 04:10:55;;;;;;;0.37;0.37;;;5.40;99.90;;;;;;4411148;32;20076;-55
2024/02/13 04:13:21;;;;;;;0.35;0.35;;;5.40;99.90;;;;;;4410629;32;20135;-57
2024/02/13 04:15:47;;;;;;;0.40;0.40;;;5.40;99.90;;;;;;4412350;32;20090;-56
2024/02/13 04:18:14;;;;;;;0.50;0.50;;;5.40;99.90;;;;;;4411525;32;20542;-59
2024/02/13 04:20:40;;;;;;;0.40;0.40;;;5.40;99.90;;;;;;4412514;32;20591;-56
2024/02/13 04:23:06;;;;;;;0.37;0.37;;;5.50;99.90;;;;;;4415674;32;20369;-57
2024/02/13 04:25:31;;;;;;;0.40;0.40;;;5.40;99.90;;;;;;4410366;32;20086;-56
2024/02/13 04:27:57;;;;;;;0.30;0.30;;;5.40;99.90;;;;;;4412362;32;20070;-54
2024/02/13 04:30:22;;;;;;;0.40;0.40;;;5.40;99.90;;;;;;4409068;32;20445;-57
2024/02/13 04:32:47;;;;;;;0.62;0.62;;;5.50;99.90;;;;;;4412024;32;20077;-56
2024/02/13 04:35:13;;;;;;;0.37;0.37;;;5.40;99.90;;;;;;4412423;32;20093;-56
2024/02/13 04:37:38;;;;;;;0.30;0.30;;;5.40;99.90;;;;;;4412829;32;20083;-55
2024/02/13 04:40:06;;;;;;;0.40;0.40;;;5.40;99.90;;;;;;4414053;32;20122;-57
2024/02/13 04:42:33;;;;;;;0.93;0.55;;;5.30;99.90;;;;;;4410580;32;20081;-56
2024/02/13 04:44:59;;;;;;;0.40;0.40;;;5.30;99.90;;;;;;4396520;32;20132;-56
2024/02/13 04:47:27;;;;;;;0.30;0.30;;;5.20;99.90;;;;;;4413613;32;20222;-56
2024/02/13 04:49:54;;;;;;;0.40;0.40;;;5.20;99.90;;;;;;4414107;32;20108;-55
2024/02/13 04:52:20;;;;;;;0.40;0.40;;;5.20;99.90;;;;;;4411054;32;20073;-57
2024/02/13 04:54:46;;;;;;;0.50;0.50;;;5.30;99.90;;;;;;4411672;32;20057;-57
2024/02/13 04:57:11;;;;;;;0.55;0.55;;;5.20;99.90;;;;;;4412047;32;20429;-57
2024/02/13 04:59:37;;;;;;;0.35;0.35;;;5.30;99.90;;;;;;4408414;32;20084;-55
2024/02/13 05:07:29;;;;;;;0.40;0.40;;;5.40;99.90;;;;;;4413158;32;20055;-57
2024/02/13 05:09:41;;;;;;;0.50;0.50;;;5.30;99.90;;;;;;4410393;32;20091;-55
2024/02/13 05:12:07;;;;;;;0.45;0.45;;;5.30;99.90;;;;;;4409447;32;20139;-55
2024/02/13 05:14:33;;;;;;;0.45;0.45;;;5.30;99.90;;;;;;4408272;32;20128;-55
2024/02/13 05:17:01;;;;;;;0.70;0.70;;;5.20;99.90;;;;;;4412360;32;20525;-54
2024/02/13 05:19:27;;;;;;;0.55;0.55;;;5.20;99.90;;;;;;4413763;32;20053;-57
2024/02/13 05:21:52;;;;;;;0.40;0.40;;;5.30;99.90;;;;;;4404719;32;20069;-57
2024/02/13 05:24:18;;;;;;;0.40;0.40;;;5.20;99.90;;;;;;4410647;32;20089;-55
2024/02/13 05:26:43;;;;;;;0.30;0.30;;;5.20;99.90;;;;;;4411821;32;20081;-56
2024/02/13 05:29:09;;;;;;;0.45;0.45;;;5.20;99.90;;;;;;4412999;32;20097;-56
2024/02/13 05:31:35;;;;;;;0.30;0.30;;;5.10;99.90;;;;;;4411534;32;20540;-57
2024/02/13 05:34:03;;;;;;;30.10;1.15;;;5.10;99.90;;;;;;4413284;32;20085;-56
2024/02/13 05:36:29;;;;;;;0.52;0.52;;;5.10;99.90;;;;;;4413248;32;20077;-55
2024/02/13 05:38:55;;;;;;;1.52;1.17;;;5.10;99.90;;;;;;4417217;32;20565;-55
2024/02/13 05:41:20;;;;;;;2.72;1.35;;;5.10;99.90;;;;;;4409956;32;20123;-57
2024/02/13 05:43:46;;;;;;;0.60;0.60;;;5.10;99.90;;;;;;4412720;32;20077;-57
2024/02/13 05:46:13;;;;;;;0.40;0.40;;;5.10;99.90;;;;;;4411170;32;20105;-57
2024/02/13 05:48:42;;;;;;;0.80;0.55;;;5.00;99.90;;;;;;4414724;32;20132;-57
2024/02/13 05:51:11;;;;;;;0.40;0.40;;;5.10;99.90;;;;;;4415310;32;20074;-60
2024/02/13 05:53:37;;;;;;;0.85;0.60;;;5.10;99.90;;;;;;4409637;32;20183;-56
2024/02/13 05:56:03;;;;;;;6.05;1.20;;;5.10;99.90;;;;;;4412672;32;20424;-57
2024/02/13 05:58:29;;;;;;;0.52;0.52;;;5.20;99.90;;;;;;4412303;32;20133;-58
2024/02/13 06:00:56;;;;;;;0.70;0.70;;;5.20;99.90;;;;;;4407996;32;20267;-58
2024/02/13 06:03:22;;;;;;;0.47;0.47;;;5.10;99.90;;;;;;4396994;32;20078;-56
2024/02/13 06:05:48;;;;;;;0.40;0.40;;;5.20;99.90;;;;;;4403021;32;20578;-58
2024/02/13 06:08:14;;;;;;;1.00;0.82;;;5.20;99.90;;;;;;4398846;32;20089;-57
2024/02/13 06:10:40;;;;;;;0.40;0.40;;;5.20;99.90;;;;;;4409400;32;20093;-57
2024/02/13 06:13:05;;;;;;;0.70;0.70;;;5.20;99.90;;;;;;4403187;32;20232;-57
2024/02/13 06:15:31;;;;;;;1.52;1.02;;;5.20;99.90;;;;;;4397796;32;20089;-56
2024/02/13 06:17:56;;;;;;;0.30;0.30;;;5.20;99.90;;;;;;4409086;32;20077;-56
2024/02/13 06:20:22;;;;;;;0.40;0.40;;;5.20;99.90;;;;;;4405257;32;20103;-56
2024/02/13 06:22:50;;;;;;;0.85;0.85;;;5.20;99.90;;;;;;4399931;32;20096;-57
2024/02/13 06:25:15;;;;;;;0.40;0.40;;;5.20;99.90;;;;;;4400584;32;20153;-55
2024/02/13 06:27:41;;;;;;;0.50;0.50;;;5.30;99.90;;;;;;4385113;32;20171;-57
2024/02/13 06:30:07;;;;;;;0.40;0.40;;;5.30;99.90;;;;;;4399673;32;20078;-58
2024/02/13 06:32:33;;;;;;;0.30;0.30;;;5.20;99.90;;;;;;4404605;32;20880;-62
2024/02/13 06:34:59;;;;;;;0.60;0.60;;;5.20;99.90;;;;;;4405657;32;20085;-55
2024/02/13 06:37:24;;;;;;;0.43;0.43;;;5.20;99.90;;;;;;4398866;32;20121;-57
2024/02/13 06:39:50;;;;;;;4.57;1.70;;;5.30;99.90;;;;;;4403781;32;20089;-58
2024/02/13 06:42:16;;;;;;;0.60;0.60;;;5.30;99.90;;;;;;4397385;32;20516;-56
2024/02/13 06:44:43;;;;;;;5.78;2.12;;;5.30;99.90;;;;;;4405714;32;20077;-56
2024/02/13 06:47:10;;;;;;;0.50;0.50;;;5.40;99.90;;;;;;4398270;32;20085;-55
2024/02/13 06:49:36;;;;;;;0.30;0.30;;;5.40;99.90;;;;;;4393214;32;20808;-57
2024/02/13 06:52:03;;;;;;;2.47;0.98;;;5.30;99.90;;;;;;4397808;32;20105;-58
2024/02/13 06:54:30;;;;;;;0.70;0.70;;;5.40;99.90;;;;;;4376097;32;20098;-59
2024/02/13 06:56:57;;;;;;;0.77;0.77;;;5.40;99.90;;;;;;4380151;32;20717;-58
2024/02/13 06:59:23;;;;;;;2.40;0.65;;;5.40;99.90;;;;;;4373537;32;20144;-59
2024/02/13 07:01:48;;;;;;;0.40;0.40;;;5.40;99.90;;;;;;4368043;32;21003;-59
2024/02/13 07:04:14;;;;;;;0.75;0.75;;;5.40;99.90;;;;;;4373493;32;20133;-56
2024/02/13 07:06:40;;;;;;;1.85;1.42;;;5.40;99.90;;;;;;4376060;32;20122;-57
2024/02/13 07:09:06;;;;;;;0.60;0.60;;;5.40;99.90;;;;;;4377775;32;20180;-57
2024/02/13 07:11:32;;;;;;;0.30;0.30;;;5.50;99.90;;;;;;4370198;32;20078;-57
2024/02/13 07:13:59;;;;;;;0.30;0.30;;;5.50;99.90;;;;;;4381995;32;20208;-57
2024/02/13 07:16:25;;;;;;;0.60;0.60;;;5.50;99.90;;;;;;4375417;32;20113;-58
2024/02/13 07:18:50;;;;;;;1.65;0.55;;;5.60;99.90;;;;;;4382751;32;20081;-58
2024/02/13 07:21:16;;;;;;;0.95;0.95;;;5.50;99.90;;;;;;4380591;32;20078;-57
2024/02/13 07:23:41;;;;;;;0.40;0.40;;;5.50;99.90;;;;;;4382771;32;20078;-58
2024/02/13 07:26:11;;;;;;;1.35;1.15;;;5.60;99.90;;;;;;4374556;32;20084;-56
2024/02/13 07:28:36;;;;;;;0.50;0.50;;;5.60;99.90;;;;;;4373224;32;20148;-55
2024/02/13 07:31:03;;;;;;;0.50;0.50;;;5.60;99.90;;;;;;4374563;32;20660;-58
2024/02/13 07:33:29;;;;;;;0.40;0.40;;;5.60;99.90;;;;;;4378425;32;20110;-57
2024/02/13 07:35:55;;;;;;;0.57;0.57;;;5.50;99.90;;;;;;4380877;32;20423;-58
2024/02/13 07:38:20;;;;;;;0.70;0.70;;;5.50;99.90;;;;;;4386746;32;20238;-57
2024/02/13 07:40:46;;;;;;;2.10;0.90;;;5.50;99.90;;;;;;4367819;32;20545;-58
2024/02/13 07:43:13;;;;;;;2.37;1.12;;;5.50;99.90;;;;;;4367470;32;20090;-56
2024/02/13 07:45:39;;;;;;;0.50;0.50;;;5.60;99.90;;;;;;4376594;32;20077;-57
2024/02/13 07:48:06;;;;;;;0.40;0.40;;;5.60;99.90;;;;;;4374180;32;20163;-58
2024/02/13 07:50:31;;;;;;;0.37;0.37;;;5.60;99.90;;;;;;4377042;32;20081;-57
2024/02/13 07:52:57;;;;;;;0.50;0.40;;;5.60;99.90;;;;;;4378195;32;20107;-56
2024/02/13 07:55:22;;;;;;;0.50;0.50;;;5.50;99.90;;;;;;4375412;32;20088;-55
2024/02/13 07:57:50;;;;;;;0.35;0.35;;;5.60;99.90;;;;;;4367904;32;20180;-55
2024/02/13 08:00:17;;;;;;;0.68;0.68;;;5.60;99.90;;;;;;4375431;32;20335;-56
2024/02/13 08:02:43;;;;;;;0.37;0.37;;;5.80;99.90;;;;;;4374637;32;20093;-55
2024/02/13 08:05:09;;;;;;;0.70;0.70;;;5.80;99.90;;;;;;4383083;32;20161;-57
2024/02/13 08:07:34;;;;;;;1.27;0.90;;;5.80;99.90;;;;;;4371384;32;20471;-57
2024/02/13 08:10:00;;;;;;;0.40;0.40;;;5.80;99.90;;;;;;4367336;32;20109;-58
2024/02/13 08:12:25;;;;;;;0.35;0.35;;;5.80;99.90;;;;;;4375329;32;20090;-58
2024/02/13 08:14:51;;;;;;;3.20;0.88;;;5.90;99.90;;;;;;4379427;32;20081;-57
2024/02/13 08:17:17;;;;;;;0.65;0.65;;;5.90;99.90;;;;;;4373269;32;20148;-59
2024/02/13 08:19:42;;;;;;;0.60;0.60;;;5.90;99.90;;;;;;4373468;32;20095;-58
2024/02/13 08:22:08;;;;;;;1.77;0.88;;;5.90;99.90;;;;;;4379928;32;20132;-57
2024/02/13 08:24:35;;;;;;;0.62;0.62;;;5.90;99.90;;;;;;4380866;32;20407;-56
2024/02/13 08:27:01;;;;;;;0.30;0.30;;;5.90;99.90;;;;;;4367561;32;20985;-56
2024/02/13 08:29:26;;;;;;;0.55;0.55;;;6.00;99.90;;;;;;4372307;32;21843;-60
2024/02/13 08:31:52;;;;;;;0.40;0.40;;;6.10;99.90;;;;;;4367328;32;20077;-57
2024/02/13 08:34:18;;;;;;;0.40;0.40;;;6.10;99.90;;;;;;4365422;32;20210;-57
2024/02/13 08:36:45;;;;;;;0.65;0.65;;;6.10;99.90;;;;;;4362632;32;20669;-55
2024/02/13 08:39:10;;;;;;;1.02;0.62;;;6.10;99.90;;;;;;4359358;32;20086;-56
2024/02/13 08:41:36;;;;;;;2.80;1.45;;;6.10;99.90;;;;;;4363343;32;21188;-57
2024/02/13 08:44:02;;;;;;;0.55;0.55;;;6.20;99.90;;;;;;4369940;32;20676;-58
2024/02/13 08:46:28;;;;;;;2.08;1.40;;;6.30;99.90;;;;;;4362378;32;20322;-55
2024/02/13 08:48:54;;;;;;;5.05;1.00;;;6.30;99.90;;;;;;4366689;32;20200;-56
2024/02/13 08:51:20;;;;;;;0.30;0.30;;;6.30;99.90;;;;;;4360619;32;20137;-55
2024/02/13 08:53:46;;;;;;;0.77;0.75;;;6.30;99.90;;;;;;4354832;32;20093;-56
2024/02/13 08:56:13;;;;;;;1.10;0.75;;;6.40;99.90;;;;;;4349163;32;20126;-56
2024/02/13 08:58:39;;;;;;;1.33;0.75;;;6.40;99.90;;;;;;4357138;32;20126;-56
2024/02/13 09:01:05;;;;;;;0.65;0.62;;;6.30;99.90;;;;;;4354055;32;20443;-56
2024/02/13 09:03:30;;;;;;;0.40;0.40;;;6.30;99.90;;;;;;4359838;32;20454;-56
2024/02/13 09:05:57;;;;;;;0.60;0.60;;;6.30;99.90;;;;;;4367071;32;20089;-57
2024/02/13 09:08:23;;;;;;;0.75;0.75;;;6.40;99.90;;;;;;4366961;32;20102;-56
2024/02/13 09:10:49;;;;;;;0.50;0.50;;;6.40;99.90;;;;;;4371978;32;20659;-58
2024/02/13 09:13:16;;;;;;;0.95;0.90;;;6.50;99.90;;;;;;4371557;32;20172;-58
2024/02/13 09:15:42;;;;;;;0.30;0.30;;;6.50;99.90;;;;;;4366647;32;20090;-57
2024/02/13 09:18:07;;;;;;;5.22;1.33;;;6.50;99.90;;;;;;4371886;32;20750;-57
2024/02/13 09:20:34;;;;;;;0.68;0.62;;;6.60;99.90;;;;;;4373799;32;20120;-56
2024/02/13 09:23:00;;;;;;;0.50;0.50;;;6.60;99.90;;;;;;4364598;32;20926;-56
2024/02/13 09:25:27;;;;;;;0.40;0.40;;;6.70;99.90;;;;;;4370770;32;20089;-56
2024/02/13 09:27:54;;;;;;;2.95;1.40;;;6.70;99.90;;;;;;4370298;32;22778;-55
2024/02/13 09:30:20;;;;;;;0.62;0.50;;;6.80;99.90;;;;;;4359784;32;20541;-55
2024/02/13 09:32:47;;;;;;;4.03;0.90;;;6.80;99.90;;;;;;4370945;32;20089;-56
2024/02/13 09:35:13;;;;;;;5.35;1.50;;;7.00;99.90;;;;;;4369636;32;20120;-56
2024/02/13 09:37:40;;;;;;;6.45;1.65;;;7.10;99.90;;;;;;4376250;32;20485;-58
2024/02/13 09:40:13;;;;;;;0.37;0.37;;;7.20;99.90;;;;;;4357606;32;20132;-55
2024/02/13 09:42:41;;;;;;;0.62;0.40;;;7.20;99.90;;;;;;4367336;32;21593;-57
2024/02/13 09:45:07;;;;;;;0.90;0.70;;;7.30;99.90;;;;;;4359768;32;20464;-57
2024/02/13 09:47:33;;;;;;;1.20;1.10;;;7.40;99.90;;;;;;4377985;32;20491;-56
2024/02/13 09:50:00;;;;;;;0.40;0.40;;;7.40;99.90;;;;;;4367723;32;20263;-57
2024/02/13 09:52:29;;;;;;;0.35;0.35;;;7.40;99.90;;;;;;4367640;32;20113;-55
2024/02/13 09:54:56;;;;;;;2.58;0.77;;;7.40;99.90;;;;;;4364376;32;20093;-58
2024/02/13 09:57:22;;;;;;;0.98;0.50;;;7.50;99.90;;;;;;4370683;32;20986;-57
2024/02/13 09:59:48;;;;;;;1.08;0.55;;;7.50;99.90;;;;;;4367634;32;20081;-56
2024/02/13 10:02:14;;;;;;;0.52;0.52;;;7.70;99.90;;;;;;4354666;32;20098;-55
2024/02/13 10:04:40;;;;;;;0.43;0.43;;;7.70;99.90;;;;;;4361107;32;20156;-55
2024/02/13 10:07:06;;;;;;;2.70;0.82;;;7.90;99.90;;;;;;4364347;32;20530;-55
2024/02/13 10:09:32;;;;;;;0.40;0.40;;;8.10;99.90;;;;;;4359788;32;20102;-57
2024/02/13 10:12:09;;;;;;;0.50;0.50;;;8.00;99.90;;;;;;4368556;32;20081;-56
2024/02/13 10:14:34;;;;;;;2.83;0.75;;;8.10;99.90;;;;;;4362053;32;20160;-57
2024/02/13 10:17:09;;;;;;;0.25;0.25;;;8.30;99.90;;;;;;4369104;32;20138;-56
2024/02/13 10:19:35;;;;;;;0.30;0.30;;;8.50;99.90;;;;;;4362791;32;20396;-57
2024/02/13 10:22:05;;;;;;;0.20;0.20;;;8.50;99.90;;;;;;4362732;32;20081;-56
2024/02/13 10:24:31;;;;;;;0.40;0.40;;;8.60;99.90;;;;;;4354673;32;20117;-57
2024/02/13 10:26:59;;;;;;;0.40;0.40;;;8.80;99.90;;;;;;4350276;32;20136;-58
2024/02/13 10:29:25;;;;;;;0.50;0.50;;;8.90;99.90;;;;;;4368919;32;20148;-58
2024/02/13 10:31:50;;;;;;;0.50;0.50;;;8.70;99.90;;;;;;4358333;32;20173;-56
2024/02/13 10:34:19;;;;;;;1.48;0.93;;;8.60;99.90;;;;;;4370088;32;20314;-55
2024/02/13 10:36:44;;;;;;;1.25;0.85;;;8.70;99.90;;;;;;4369515;32;20101;-56
2024/02/13 10:39:12;;;;;;;0.40;0.40;;;8.70;99.90;;;;;;4367086;32;20164;-57
2024/02/13 10:41:40;;;;;;;1.58;0.50;;;8.70;99.90;;;;;;4372451;32;20090;-57
2024/02/13 10:44:09;;;;;;;0.40;0.40;;;8.70;99.90;;;;;;4361023;32;20077;-58
2024/02/13 10:46:39;;;;;;;37.80;0.70;;;8.60;99.90;;;;;;4380410;32;21416;-67
2024/02/13 10:49:34;;;;;;;1.10;1.00;;;8.50;99.90;;;;;;4373406;32;20090;-58
2024/02/13 10:52:01;;;;;;;0.43;0.43;;;8.40;99.90;;;;;;4360375;32;20625;-57
2024/02/13 10:54:27;;;;;;;0.50;0.50;;;8.20;99.90;;;;;;4359228;32;20212;-58
2024/02/13 10:56:54;;;;;;;0.25;0.25;;;8.20;99.90;;;;;;4368824;32;20081;-57
2024/02/13 10:59:22;;;;;;;0.30;0.30;;;8.20;99.90;;;;;;4368062;32;20741;-56
2024/02/13 11:01:48;;;;;;;0.30;0.30;;;8.30;99.90;;;;;;4362745;32;20853;-58
2024/02/13 11:04:16;;;;;;;0.45;0.45;;;8.50;99.90;;;;;;4370993;32;20371;-58
2024/02/13 11:06:41;;;;;;;0.30;0.30;;;8.50;99.90;;;;;;4363875;32;20136;-58
2024/02/13 11:09:12;;;;;;;0.40;0.40;;;8.60;99.90;;;;;;4370387;32;20928;-59
2024/02/13 11:11:38;;;;;;;12.10;0.40;;;8.70;99.90;;;;;;4370908;32;20292;-57
2024/02/13 11:14:15;;;;;;;0.30;0.30;;;8.70;99.90;;;;;;4361209;32;25707;-58
2024/02/13 11:16:51;;;;;;;0.30;0.30;;;8.80;99.90;;;;;;4364249;32;20856;-59
2024/02/13 11:19:18;;;;;;;0.30;0.30;;;9.00;99.90;;;;;;4372361;32;21341;-58
2024/02/13 11:21:48;;;;;;;1.12;0.75;;;9.00;99.90;;;;;;4365283;32;20137;-57
2024/02/13 11:24:20;;;;;;;0.65;0.65;;;8.90;99.90;;;;;;4372284;32;20110;-57
2024/02/13 11:26:46;;;;;;;0.30;0.30;;;9.00;99.90;;;;;;4380376;32;20431;-56
2024/02/13 11:29:14;;;;;;;3.50;1.58;;;9.10;99.90;;;;;;4374810;32;20114;-60
2024/02/13 11:31:40;;;;;;;0.32;0.32;;;9.30;99.90;;;;;;4381920;32;20093;-58
2024/02/13 11:34:09;;;;;;;0.28;0.28;;;9.40;99.90;;;;;;4382578;32;21500;-58
2024/02/13 11:36:35;;;;;;;0.30;0.30;;;9.30;99.90;;;;;;4382777;32;20462;-59
2024/02/13 11:39:04;;;;;;;0.40;0.40;;;9.40;99.90;;;;;;4374674;32;20085;-60
2024/02/13 11:41:31;;;;;;;3.60;1.15;;;9.80;99.90;;;;;;4362799;32;20098;-57
2024/02/13 11:44:12;;;;;;;0.30;0.30;;;10.10;99.90;;;;;;4373030;32;21453;-59
2024/02/13 11:46:39;;;;;;;0.40;0.40;;;10.30;99.90;;;;;;4370296;32;20097;-58
2024/02/13 11:49:07;;;;;;;1.33;0.55;;;10.50;99.90;;;;;;4379405;32;20105;-59
2024/02/13 11:51:34;;;;;;;0.50;0.50;;;10.50;99.90;;;;;;4363141;32;81257;-57
2024/02/13 11:53:59;;;;;;;0.70;0.70;;;10.60;99.90;;;;;;4362460;32;21763;-59
2024/02/13 11:56:25;;;;;;;0.60;0.60;;;10.60;99.90;;;;;;4367654;32;20097;-57
2024/02/13 11:58:56;;;;;;;0.45;0.45;;;10.50;99.90;;;;;;4360233;32;21164;-62
2024/02/13 12:01:23;;;;;;;0.40;0.40;;;10.50;99.90;;;;;;4360451;32;20451;-60
2024/02/13 12:03:49;;;;;;;0.50;0.50;;;10.40;99.90;;;;;;4371005;32;20700;-60
2024/02/13 12:06:15;;;;;;;2.58;0.57;;;10.30;99.90;;;;;;4355169;32;20362;-60
2024/02/13 12:08:43;;;;;;;0.30;0.30;;;10.10;99.90;;;;;;4355046;32;20070;-59
2024/02/13 12:11:10;;;;;;;0.40;0.40;;;9.70;99.90;;;;;;4353515;32;20081;-61
2024/02/13 12:13:36;;;;;;;4.15;1.40;;;9.60;99.90;;;;;;4379542;32;20884;-61
2024/02/13 12:16:04;;;;;;;4.28;0.80;;;10.00;99.90;;;;;;4388485;32;20117;-62
2024/02/13 12:18:30;;;;;;;3.92;0.75;;;10.90;99.90;;;;;;4387607;32;20097;-61
2024/02/13 12:20:57;;;;;;;0.60;0.60;;;11.50;99.90;;;;;;4390181;32;20232;-61
2024/02/13 12:23:25;;;;;;;0.75;0.50;;;11.60;99.90;;;;;;4374784;32;20095;-60
2024/02/13 12:26:06;;;;;;;1.85;0.50;;;11.60;99.90;;;;;;4368073;32;20086;-62
2024/02/13 12:28:32;;;;;;;0.35;0.35;;;11.40;99.90;;;;;;4382707;32;20881;-58
2024/02/13 12:31:02;;;;;;;0.30;0.30;;;11.20;99.90;;;;;;4389618;32;20082;-58
2024/02/13 12:33:28;;;;;;;1.52;1.33;;;10.80;99.90;;;;;;4385460;32;20093;-58
2024/02/13 12:36:05;;;;;;;0.40;0.40;;;11.10;99.90;;;;;;4384319;32;20105;-59
2024/02/13 12:38:31;;;;;;;0.40;0.40;;;11.00;99.90;;;;;;4387793;32;20122;-59
2024/02/13 12:40:57;;;;;;;0.68;0.68;;;10.90;99.90;;;;;;4357702;32;20144;-58
2024/02/13 12:43:27;;;;;;;0.57;0.57;;;10.80;99.90;;;;;;4382453;32;20188;-57
2024/02/13 12:45:55;;;;;;;0.43;0.43;;;11.30;99.90;;;;;;4373231;32;20440;-61
2024/02/13 12:48:22;;;;;;;2.85;0.80;;;11.40;99.90;;;;;;4383509;32;20983;-58
2024/02/13 12:50:49;;;;;;;0.30;0.30;;;11.40;99.90;;;;;;4381652;32;20098;-59
2024/02/13 12:53:18;;;;;;;0.50;0.50;;;12.00;99.90;;;;;;4393285;32;20085;-60
2024/02/13 12:55:43;;;;;;;0.40;0.40;;;12.40;99.90;;;;;;4386085;32;20088;-59
2024/02/13 12:58:12;;;;;;;0.40;0.40;;;12.70;99.90;;;;;;4371534;32;20654;-58
2024/02/13 13:00:45;;;;;;;6.55;0.77;;;12.60;99.90;;;;;;4397276;32;20533;-59